CMA CGM Homere — MQBL6 — position and weather

sailwx.info

Track history (hours):
 
Tides and Currents Weather Stations Pressure Air Temp Water Temp Dewpoint Dewpoint Depression Visibility Wind Speed Wind Dir Waves Ship Positions

CMA CGM Homere

Last reported at 2017-Aug-18 05:39 UTC. Time now 2017-Aug-24 03:10 UTC.
Position N 27°26' W 014°05'.

Length 170 m; draft 9.5 m.

Type: Ship (hazmat cat A). MMSI: 235052314.

Date/timePositionNaut miles runAvg speedWind from/ knotsBaromVisibWave heightAir tempDewpointWater temp
2017-Aug-18 05:39N 27°26' W 014°05'317.3
2017-Aug-18 05:29N 27°28' W 014°03'817.1
2017-Aug-18 05:01N 27°34' W 013°57'917.0
2017-Aug-18 04:31N 27°40' W 013°50'917.0
2017-Aug-18 04:01N 27°46' W 013°44'916.9
2017-Aug-18 03:30N 27°53' W 013°37'817.0
2017-Aug-18 03:00N 27°59' W 013°32'1017.2
2017-Aug-18 02:26N 28°08' W 013°26'717.3
2017-Aug-18 02:00N 28°14' W 013°21'917.2
2017-Aug-18 01:28N 28°22' W 013°15'816.9
2017-Aug-18 01:00N 28°28' W 013°10'917.0
2017-Aug-18 00:28N 28°36' W 013°05'916.9
2017-Aug-17 23:55N 28°44' W 012°59'716.8
2017-Aug-17 23:30N 28°49' W 012°55'816.6
2017-Aug-17 23:00N 28°56' W 012°49'816.7
2017-Aug-17 22:30N 29°03' W 012°44'816.7
2017-Aug-17 22:00N 29°10' W 012°39'816.8
2017-Aug-17 21:31N 29°17' W 012°34'816.8
2017-Aug-17 21:00N 29°25' W 012°29'4716.8
2017-Aug-17 18:12N 30°03' W 011°57'416.5
2017-Aug-17 17:59N 30°06' W 011°55'1016.2
2017-Aug-17 17:24N 30°14' W 011°49'616.3
2017-Aug-17 17:00N 30°20' W 011°46'2616.4
2017-Aug-17 15:25N 30°43' W 011°32'1616.4
2017-Aug-17 14:27N 30°57' W 011°23'716.4
2017-Aug-17 14:00N 31°03' W 011°19'816.0
2017-Aug-17 13:30N 31°10' W 011°14'4016.3
2017-Aug-17 11:04N 31°42' W 010°47'13215.7
2017-Aug-17 02:41N 33°32' W 009°19'2715.3
2017-Aug-17 00:54N 33°54' W 009°01'2415.3
2017-Aug-16 23:20N 34°10' W 008°39'4415.4
2017-Aug-16 20:29N 34°39' W 007°60'1315.8
2017-Aug-16 19:40N 34°48' W 007°48'315.7
2017-Aug-16 19:28N 34°50' W 007°45'715.9
2017-Aug-16 19:00N 34°55' W 007°38'1116.0
2017-Aug-16 18:19N 35°02' W 007°28'516.0
2017-Aug-16 17:59N 35°06' W 007°23'2115.7
2017-Aug-16 16:39N 35°20' W 007°04'515.8
2017-Aug-16 16:18N 35°23' W 006°59'1715.7
2017-Aug-16 15:15N 35°34' W 006°44'615.4
2017-Aug-16 14:53N 35°38' W 006°39'1116.1
2017-Aug-16 14:11N 35°46' W 006°28'316.9
2017-Aug-16 14:00N 35°48' W 006°26'4315.0
2017-Aug-16 11:09N 35°57' W 005°34'3 0.2
2017-Aug-15 14:57N 35°54' W 005°34'3 1.4
2017-Aug-15 12:44N 35°57' W 005°32'312.2
2017-Aug-15 12:30N 35°58' W 005°29'713.6
2017-Aug-15 12:01N 36°01' W 005°22'814.8
2017-Aug-15 11:30N 36°04' W 005°13'7 0.2
2017-Aug-14 03:48N 36°03' W 005°21'2 6.9
2017-Aug-14 03:30N 36°04' W 005°24'3 6.0
2017-Aug-14 02:57N 36°07' W 005°25'  
2017-Aug-10 22:44N 36°09' W 005°25'1 3.6
2017-Aug-10 22:30N 36°09' W 005°24'2 3.5
2017-Aug-10 22:00N 36°07' W 005°23'5 9.1
2017-Aug-10 21:28N 36°06' W 005°17'6 5.3
2017-Aug-10 20:25N 36°10' W 005°12'0 0.9
2017-Aug-10 19:55N 36°10' W 005°11'16 5.1
2017-Aug-10 16:47N 35°59' W 005°26'310.5
2017-Aug-10 16:30N 35°58' W 005°29'27910.5
2017-Aug-09 14:01N 32°42' W 009°29'110.0
2017-Aug-09 13:57N 32°41' W 009°29'2610.7
2017-Aug-09 11:32N 32°17' W 009°41'111.8
2017-Aug-09 11:25N 32°16' W 009°42'611.6
2017-Aug-09 10:55N 32°10' W 009°44'511.5
2017-Aug-09 10:30N 32°06' W 009°46'611.6
2017-Aug-09 10:00N 32°01' W 009°49'611.3
2017-Aug-09 09:29N 31°55' W 009°52'911.0
2017-Aug-09 08:41N 31°47' W 009°56'211.1
2017-Aug-09 08:30N 31°45' W 009°57'611.0
2017-Aug-09 07:59N 31°40' W 009°59'611.3
2017-Aug-09 07:30N 31°34' W 010°01'1411.3
2017-Aug-09 06:16N 31°21' W 010°06'311.0
2017-Aug-09 05:58N 31°18' W 010°07'510.5
2017-Aug-09 05:30N 31°14' W 010°10'510.4
2017-Aug-09 05:00N 31°09' W 010°13'510.0
2017-Aug-09 04:29N 31°05' W 010°16'611.8
2017-Aug-09 04:00N 30°60' W 010°19'5514.5
2017-Aug-09 00:13N 30°12' W 010°50'314.4
2017-Aug-09 00:00N 30°09' W 010°51'714.7
2017-Aug-08 23:30N 30°02' W 010°55'815.2
2017-Aug-08 23:01N 29°56' W 010°59'815.3
2017-Aug-08 22:30N 29°49' W 011°04'815.7
2017-Aug-08 22:00N 29°42' W 011°08'1115.9
2017-Aug-08 21:18N 29°32' W 011°14'515.8
2017-Aug-08 21:00N 29°28' W 011°16'1116.2
2017-Aug-08 20:21N 29°19' W 011°22'616.6
2017-Aug-08 20:01N 29°14' W 011°25'816.4
2017-Aug-08 19:30N 29°08' W 011°32'916.5
2017-Aug-08 18:58N 29°02' W 011°40'816.7
2017-Aug-08 18:30N 28°58' W 011°47'816.8
2017-Aug-08 18:00N 28°53' W 011°54'816.8
2017-Aug-08 17:30N 28°48' W 012°03'816.8
2017-Aug-08 17:01N 28°44' W 012°11'917.0
2017-Aug-08 16:30N 28°40' W 012°19'917.3
2017-Aug-08 16:00N 28°35' W 012°28'917.1
2017-Aug-08 15:30N 28°31' W 012°37'816.9
2017-Aug-08 15:00N 28°27' W 012°44'917.1
2017-Aug-08 14:30N 28°22' W 012°52'917.3
2017-Aug-08 14:01N 28°16' W 013°00'917.4
2017-Aug-08 13:30N 28°11' W 013°08'917.5
2017-Aug-08 13:00N 28°05' W 013°15'918.0
2017-Aug-08 12:30N 27°59' W 013°22'918.1
2017-Aug-08 12:00N 27°53' W 013°30'917.9
2017-Aug-08 11:30N 27°47' W 013°37'918.0
2017-Aug-08 11:01N 27°41' W 013°45'918.0
2017-Aug-08 10:30N 27°35' W 013°53'7516.5
2017-Aug-08 05:57N 26°40' W 014°51'  
Track history (hours):
 
Tides and Currents Weather Stations Pressure Air Temp Water Temp Dewpoint Dewpoint Depression Visibility Wind Speed Wind Dir Waves Ship Positions

CMA CGM Homere

Last reported at 2017-Aug-18 05:39 UTC. Time now 2017-Aug-24 03:10 UTC.
Position N 27°26' W 014°05'.

Length 170 m; draft 9.5 m.

Type: Ship (hazmat cat A). MMSI: 235052314.

Date/timePositionNaut miles runAvg speedWind from/ knotsBaromVisibWave heightAir tempDewpointWater temp
2017-Aug-18 05:39N 27°26' W 014°05'317.3
2017-Aug-18 05:29N 27°28' W 014°03'817.1
2017-Aug-18 05:01N 27°34' W 013°57'917.0
2017-Aug-18 04:31N 27°40' W 013°50'917.0
2017-Aug-18 04:01N 27°46' W 013°44'916.9
2017-Aug-18 03:30N 27°53' W 013°37'817.0
2017-Aug-18 03:00N 27°59' W 013°32'1017.2
2017-Aug-18 02:26N 28°08' W 013°26'717.3
2017-Aug-18 02:00N 28°14' W 013°21'917.2
2017-Aug-18 01:28N 28°22' W 013°15'816.9
2017-Aug-18 01:00N 28°28' W 013°10'917.0
2017-Aug-18 00:28N 28°36' W 013°05'916.9
2017-Aug-17 23:55N 28°44' W 012°59'716.8
2017-Aug-17 23:30N 28°49' W 012°55'816.6
2017-Aug-17 23:00N 28°56' W 012°49'816.7
2017-Aug-17 22:30N 29°03' W 012°44'816.7
2017-Aug-17 22:00N 29°10' W 012°39'816.8
2017-Aug-17 21:31N 29°17' W 012°34'816.8
2017-Aug-17 21:00N 29°25' W 012°29'4716.8
2017-Aug-17 18:12N 30°03' W 011°57'416.5
2017-Aug-17 17:59N 30°06' W 011°55'1016.2
2017-Aug-17 17:24N 30°14' W 011°49'616.3
2017-Aug-17 17:00N 30°20' W 011°46'2616.4
2017-Aug-17 15:25N 30°43' W 011°32'1616.4
2017-Aug-17 14:27N 30°57' W 011°23'716.4
2017-Aug-17 14:00N 31°03' W 011°19'816.0
2017-Aug-17 13:30N 31°10' W 011°14'4016.3
2017-Aug-17 11:04N 31°42' W 010°47'13215.7
2017-Aug-17 02:41N 33°32' W 009°19'2715.3
2017-Aug-17 00:54N 33°54' W 009°01'2415.3
2017-Aug-16 23:20N 34°10' W 008°39'4415.4
2017-Aug-16 20:29N 34°39' W 007°60'1315.8
2017-Aug-16 19:40N 34°48' W 007°48'315.7
2017-Aug-16 19:28N 34°50' W 007°45'715.9
2017-Aug-16 19:00N 34°55' W 007°38'1116.0
2017-Aug-16 18:19N 35°02' W 007°28'516.0
2017-Aug-16 17:59N 35°06' W 007°23'2115.7
2017-Aug-16 16:39N 35°20' W 007°04'515.8
2017-Aug-16 16:18N 35°23' W 006°59'1715.7
2017-Aug-16 15:15N 35°34' W 006°44'615.4
2017-Aug-16 14:53N 35°38' W 006°39'1116.1
2017-Aug-16 14:11N 35°46' W 006°28'316.9
2017-Aug-16 14:00N 35°48' W 006°26'4315.0
2017-Aug-16 11:09N 35°57' W 005°34'3 0.2
2017-Aug-15 14:57N 35°54' W 005°34'3 1.4
2017-Aug-15 12:44N 35°57' W 005°32'312.2
2017-Aug-15 12:30N 35°58' W 005°29'713.6
2017-Aug-15 12:01N 36°01' W 005°22'814.8
2017-Aug-15 11:30N 36°04' W 005°13'7 0.2
2017-Aug-14 03:48N 36°03' W 005°21'2 6.9
2017-Aug-14 03:30N 36°04' W 005°24'3 6.0
2017-Aug-14 02:57N 36°07' W 005°25'  
2017-Aug-10 22:44N 36°09' W 005°25'1 3.6
2017-Aug-10 22:30N 36°09' W 005°24'2 3.5
2017-Aug-10 22:00N 36°07' W 005°23'5 9.1
2017-Aug-10 21:28N 36°06' W 005°17'6 5.3
2017-Aug-10 20:25N 36°10' W 005°12'0 0.9
2017-Aug-10 19:55N 36°10' W 005°11'16 5.1
2017-Aug-10 16:47N 35°59' W 005°26'310.5
2017-Aug-10 16:30N 35°58' W 005°29'27910.5
2017-Aug-09 14:01N 32°42' W 009°29'110.0
2017-Aug-09 13:57N 32°41' W 009°29'2610.7
2017-Aug-09 11:32N 32°17' W 009°41'111.8
2017-Aug-09 11:25N 32°16' W 009°42'611.6
2017-Aug-09 10:55N 32°10' W 009°44'511.5
2017-Aug-09 10:30N 32°06' W 009°46'611.6
2017-Aug-09 10:00N 32°01' W 009°49'611.3
2017-Aug-09 09:29N 31°55' W 009°52'911.0
2017-Aug-09 08:41N 31°47' W 009°56'211.1
2017-Aug-09 08:30N 31°45' W 009°57'611.0
2017-Aug-09 07:59N 31°40' W 009°59'611.3
2017-Aug-09 07:30N 31°34' W 010°01'1411.3
2017-Aug-09 06:16N 31°21' W 010°06'311.0
2017-Aug-09 05:58N 31°18' W 010°07'510.5
2017-Aug-09 05:30N 31°14' W 010°10'510.4
2017-Aug-09 05:00N 31°09' W 010°13'510.0
2017-Aug-09 04:29N 31°05' W 010°16'611.8
2017-Aug-09 04:00N 30°60' W 010°19'5514.5
2017-Aug-09 00:13N 30°12' W 010°50'314.4
2017-Aug-09 00:00N 30°09' W 010°51'714.7
2017-Aug-08 23:30N 30°02' W 010°55'815.2
2017-Aug-08 23:01N 29°56' W 010°59'815.3
2017-Aug-08 22:30N 29°49' W 011°04'815.7
2017-Aug-08 22:00N 29°42' W 011°08'1115.9
2017-Aug-08 21:18N 29°32' W 011°14'515.8
2017-Aug-08 21:00N 29°28' W 011°16'1116.2
2017-Aug-08 20:21N 29°19' W 011°22'616.6
2017-Aug-08 20:01N 29°14' W 011°25'816.4
2017-Aug-08 19:30N 29°08' W 011°32'916.5
2017-Aug-08 18:58N 29°02' W 011°40'816.7
2017-Aug-08 18:30N 28°58' W 011°47'816.8
2017-Aug-08 18:00N 28°53' W 011°54'816.8
2017-Aug-08 17:30N 28°48' W 012°03'816.8
2017-Aug-08 17:01N 28°44' W 012°11'917.0
2017-Aug-08 16:30N 28°40' W 012°19'917.3
2017-Aug-08 16:00N 28°35' W 012°28'917.1
2017-Aug-08 15:30N 28°31' W 012°37'816.9
2017-Aug-08 15:00N 28°27' W 012°44'917.1
2017-Aug-08 14:30N 28°22' W 012°52'917.3
2017-Aug-08 14:01N 28°16' W 013°00'917.4
2017-Aug-08 13:30N 28°11' W 013°08'917.5
2017-Aug-08 13:00N 28°05' W 013°15'918.0
2017-Aug-08 12:30N 27°59' W 013°22'918.1
2017-Aug-08 12:00N 27°53' W 013°30'917.9
2017-Aug-08 11:30N 27°47' W 013°37'918.0
2017-Aug-08 11:01N 27°41' W 013°45'918.0
2017-Aug-08 10:30N 27°35' W 013°53'7516.5
2017-Aug-08 05:57N 26°40' W 014°51'  

Dump ship's entire track history